Time;durP1;ratioP1;P1;durP2;ratioP2;P2;SDS_P1;SDS_P2;PMS_P1;PMS_P2;Temp;Humidity;BMP_temperature;BMP_pressure;BME280_temperature;BME280_humidity;BME280_pressure;Samples;Min_cycle;Max_cycle;Signal;HPM_P1;HPM_P2
2023/01/21 00:00:39;;;;;;;2.87;2.53;;;18.00;40.50;;;;;;5042943;27;89616;-57
2023/01/21 00:03:07;;;;;;;3.93;2.33;;;18.00;40.50;;;;;;5043190;27;88416;-57
2023/01/21 00:05:35;;;;;;;3.73;2.00;;;18.00;40.50;;;;;;5046303;27;87292;-57
2023/01/21 00:08:03;;;;;;;4.17;2.53;;;18.00;40.50;;;;;;5047625;27;88741;-58
2023/01/21 00:10:31;;;;;;;3.00;2.20;;;18.00;40.50;;;;;;5041668;27;87678;-57
2023/01/21 00:12:59;;;;;;;2.97;2.33;;;18.00;40.50;;;;;;5050894;27;87552;-57
2023/01/21 00:15:28;;;;;;;3.33;2.80;;;18.00;40.60;;;;;;5043466;27;86212;-57
2023/01/21 00:17:57;;;;;;;3.20;2.37;;;18.00;40.90;;;;;;5044252;27;88103;-57
2023/01/21 00:20:24;;;;;;;4.97;2.43;;;18.00;40.60;;;;;;5034345;27;87835;-57
2023/01/21 00:22:53;;;;;;;2.87;2.40;;;18.00;40.60;;;;;;5041263;27;88092;-57
2023/01/21 00:25:21;;;;;;;3.13;1.90;;;17.90;41.10;;;;;;5042331;27;87296;-57
2023/01/21 00:27:49;;;;;;;2.30;2.10;;;17.90;40.50;;;;;;5042177;27;88203;-57
2023/01/21 00:30:17;;;;;;;2.83;2.10;;;17.90;41.20;;;;;;5043111;27;87056;-57
2023/01/21 00:32:47;;;;;;;3.57;2.10;;;17.90;40.50;;;;;;5060624;27;86953;-57
2023/01/21 00:35:15;;;;;;;2.80;2.33;;;17.90;40.50;;;;;;5059863;27;87178;-57
2023/01/21 00:37:43;;;;;;;2.83;2.10;;;17.90;40.50;;;;;;5022884;27;88327;-57
2023/01/21 00:40:12;;;;;;;2.83;2.30;;;17.90;40.50;;;;;;5041856;27;87862;-57
2023/01/21 00:42:40;;;;;;;2.00;1.87;;;17.90;40.50;;;;;;5039959;27;88331;-57
2023/01/21 00:45:09;;;;;;;4.80;2.57;;;17.90;40.50;;;;;;5040606;27;87092;-57
2023/01/21 00:47:37;;;;;;;2.10;1.87;;;17.90;40.50;;;;;;5040534;27;88031;-57
2023/01/21 00:50:08;;;;;;;2.77;2.03;;;17.90;40.50;;;;;;5040788;28;87415;-57
2023/01/21 00:52:37;;;;;;;4.83;2.70;;;17.90;40.60;;;;;;5045050;27;88270;-57
2023/01/21 00:55:05;;;;;;;3.53;2.50;;;17.90;40.50;;;;;;5026251;27;87070;-57
2023/01/21 00:57:34;;;;;;;2.47;2.03;;;17.90;40.50;;;;;;5050804;27;89145;-57
2023/01/21 01:00:02;;;;;;;3.97;1.83;;;17.90;41.20;;;;;;5046884;27;88773;-57
2023/01/21 01:02:30;;;;;;;4.37;2.73;;;17.90;40.50;;;;;;5042220;27;87068;-57
2023/01/21 01:04:58;;;;;;;4.57;2.80;;;17.90;40.50;;;;;;5041208;28;86395;-57
2023/01/21 01:07:27;;;;;;;3.83;2.10;;;17.90;40.50;;;;;;5044317;27;89045;-57
2023/01/21 01:09:55;;;;;;;4.27;1.97;;;17.80;40.50;;;;;;5039078;28;87689;-57
2023/01/21 01:12:23;;;;;;;2.93;2.13;;;17.80;40.50;;;;;;5039301;27;87881;-57
2023/01/21 01:14:51;;;;;;;4.77;2.10;;;17.80;40.50;;;;;;5040060;28;88895;-56
2023/01/21 01:17:19;;;;;;;3.93;2.17;;;17.80;40.50;;;;;;5039311;28;88113;-56
2023/01/21 01:19:47;;;;;;;3.40;2.13;;;17.80;40.50;;;;;;5040978;27;87665;-55
2023/01/21 01:22:15;;;;;;;3.20;2.20;;;17.80;40.60;;;;;;5042875;27;88694;-55
2023/01/21 01:24:45;;;;;;;2.10;1.87;;;17.80;40.60;;;;;;5041090;27;87128;-57
2023/01/21 01:27:13;;;;;;;2.47;2.03;;;17.80;40.70;;;;;;5040577;28;88067;-54
2023/01/21 01:29:40;;;;;;;2.00;1.77;;;17.90;40.80;;;;;;5041894;27;87968;-54
2023/01/21 01:32:09;;;;;;;4.47;2.50;;;18.00;40.90;;;;;;5044030;27;87238;-57
2023/01/21 01:34:37;;;;;;;5.00;2.97;;;18.10;41.00;;;;;;5046866;27;87079;-56
2023/01/21 01:37:05;;;;;;;1.60;1.30;;;18.30;41.10;;;;;;5044404;27;89061;-53
2023/01/21 01:39:33;;;;;;;4.20;1.93;;;18.50;41.20;;;;;;5042434;27;89810;-54
2023/01/21 01:42:02;;;;;;;3.00;1.70;;;18.70;41.20;;;;;;5039882;27;87203;-54
2023/01/21 01:44:58;;;;;;;2.97;2.13;;;18.90;41.20;;;;;;5040633;28;87063;-54
2023/01/21 01:47:29;;;;;;;2.20;1.60;;;19.20;41.20;;;;;;5045489;27;89308;-54
2023/01/21 01:49:58;;;;;;;3.57;1.83;;;19.50;41.30;;;;;;5040814;27;88112;-54
2023/01/21 01:52:26;;;;;;;3.00;1.50;;;19.70;41.20;;;;;;5049095;27;87023;-54
2023/01/21 01:54:55;;;;;;;3.80;2.03;;;20.00;41.20;;;;;;5057266;27;86362;-55
2023/01/21 01:57:28;;;;;;;3.17;2.07;;;20.30;41.20;;;;;;5044892;27;88064;-55
2023/01/21 01:59:56;;;;;;;4.90;1.57;;;20.50;41.10;;;;;;5039160;27;87624;-54
2023/01/21 02:02:24;;;;;;;2.13;1.50;;;20.70;41.10;;;;;;5040571;27;88274;-55
2023/01/21 02:04:53;;;;;;;1.80;1.47;;;20.90;41.10;;;;;;5042063;27;87037;-55
2023/01/21 02:07:23;;;;;;;1.20;1.10;;;21.10;41.00;;;;;;5044349;27;88322;-55
2023/01/21 02:09:51;;;;;;;2.10;1.60;;;21.30;41.00;;;;;;5038371;28;87774;-55
2023/01/21 02:12:19;;;;;;;3.03;1.43;;;21.50;41.00;;;;;;5040108;28;87152;-55
2023/01/21 02:14:48;;;;;;;1.57;1.27;;;21.60;41.00;;;;;;5040601;28;87078;-54
2023/01/21 02:17:24;;;;;;;1.53;1.33;;;21.70;40.90;;;;;;5038654;27;87883;-55
2023/01/21 02:20:31;;;;;;;2.10;1.07;;;21.80;40.90;;;;;;5040511;27;88880;-55
2023/01/21 02:23:01;;;;;;;2.10;1.53;;;22.00;41.00;;;;;;5036815;27;87156;-55
2023/01/21 02:26:12;;;;;;;2.03;1.47;;;22.10;40.80;;;;;;5043146;27;87551;-55
2023/01/21 02:29:07;;;;;;;1.43;1.30;;;22.20;40.80;;;;;;5003075;28;90375;-56
2023/01/21 02:31:55;;;;;;;3.20;1.50;;;22.30;40.80;;;;;;5042485;27;88882;-57
2023/01/21 02:34:27;;;;;;;1.63;1.33;;;22.40;40.70;;;;;;5049893;27;87462;-57
2023/01/21 02:37:14;;;;;;;2.17;1.30;;;22.40;40.60;;;;;;5036057;28;87016;-57
2023/01/21 02:39:51;;;;;;;2.73;1.60;;;22.40;41.20;;;;;;5040607;28;88376;-56
2023/01/21 02:42:23;;;;;;;2.40;1.33;;;22.40;40.70;;;;;;5027546;28;87642;-57
2023/01/21 02:44:54;;;;;;;2.10;1.50;;;22.40;40.50;;;;;;5043608;28;87083;-58
2023/01/21 02:47:25;;;;;;;2.00;1.47;;;22.30;40.40;;;;;;5042091;28;86988;-57
2023/01/21 02:49:57;;;;;;;1.37;1.13;;;22.20;40.40;;;;;;5043179;28;88308;-58
2023/01/21 02:52:25;;;;;;;2.80;1.57;;;22.20;40.40;;;;;;5040332;28;89050;-56
2023/01/21 02:54:55;;;;;;;1.67;1.57;;;22.20;40.30;;;;;;5042581;28;88033;-58
2023/01/21 02:57:40;;;;;;;1.80;1.13;;;22.20;40.30;;;;;;5043291;28;87175;-57
2023/01/21 03:00:11;;;;;;;2.53;1.20;;;22.30;40.20;;;;;;5043288;27;88681;-57
2023/01/21 03:02:52;;;;;;;2.53;1.30;;;22.30;40.10;;;;;;5042258;28;88932;-59
2023/01/21 03:05:23;;;;;;;1.80;1.13;;;22.30;40.00;;;;;;5042660;27;87040;-59
2023/01/21 03:07:54;;;;;;;1.63;1.30;;;22.40;40.00;;;;;;5042604;28;87016;-59
2023/01/21 03:10:26;;;;;;;1.77;1.37;;;22.30;39.80;;;;;;5042416;27;89165;-58
2023/01/21 03:12:56;;;;;;;2.13;1.60;;;22.30;39.80;;;;;;5043540;27;88959;-58
2023/01/21 03:18:15;;;;;;;1.60;1.43;;;22.20;39.80;;;;;;5042007;28;87122;-58
2023/01/21 03:20:45;;;;;;;2.87;1.70;;;22.10;39.70;;;;;;5042932;28;88020;-59
2023/01/21 03:23:15;;;;;;;1.83;1.37;;;22.00;39.70;;;;;;5043058;28;89820;-57
2023/01/21 03:25:43;;;;;;;2.40;1.60;;;22.00;39.70;;;;;;5043126;27;87000;-57
2023/01/21 03:28:12;;;;;;;0.77;0.77;;;21.90;39.70;;;;;;5042598;28;87129;-58
2023/01/21 03:30:41;;;;;;;1.90;1.40;;;21.80;39.70;;;;;;5043785;27;88290;-57
2023/01/21 03:33:09;;;;;;;2.50;1.43;;;21.70;39.70;;;;;;5051994;27;88032;-56
2023/01/21 03:35:39;;;;;;;1.10;1.00;;;21.70;39.70;;;;;;5043096;27;87098;-56
2023/01/21 03:38:11;;;;;;;1.40;1.07;;;21.60;39.60;;;;;;5042507;28;86320;-56
2023/01/21 03:40:42;;;;;;;2.60;1.50;;;21.50;39.60;;;;;;5042570;27;88039;-56
2023/01/21 03:43:10;;;;;;;2.10;0.93;;;21.50;39.60;;;;;;5041527;27;88946;-56
2023/01/21 03:45:41;;;;;;;2.70;1.13;;;21.40;39.60;;;;;;5041832;27;88019;-56
2023/01/21 03:48:16;;;;;;;0.80;0.77;;;21.30;39.60;;;;;;5042560;27;88604;-56
2023/01/21 03:50:45;;;;;;;1.67;1.00;;;21.30;39.60;;;;;;5048385;27;88051;-57
2023/01/21 03:53:14;;;;;;;2.20;1.80;;;21.20;39.50;;;;;;5059564;27;88935;-57
2023/01/21 03:55:42;;;;;;;1.37;1.23;;;21.20;39.60;;;;;;5050385;27;87149;-57
2023/01/21 03:58:10;;;;;;;2.20;1.57;;;21.10;39.50;;;;;;5058959;27;87287;-56
2023/01/21 04:00:38;;;;;;;3.97;1.80;;;21.00;39.50;;;;;;5057311;27;87128;-57
2023/01/21 04:03:06;;;;;;;3.80;1.50;;;21.00;39.50;;;;;;5043075;27;87812;-57
2023/01/21 04:05:34;;;;;;;2.37;1.60;;;20.90;39.40;;;;;;5041861;27;87041;-56
2023/01/21 04:08:02;;;;;;;2.00;1.37;;;20.90;39.50;;;;;;5040748;27;87066;-57
2023/01/21 04:10:32;;;;;;;1.20;1.00;;;20.80;39.40;;;;;;5053953;27;90154;-57
2023/01/21 04:13:00;;;;;;;1.63;1.23;;;20.80;39.50;;;;;;5044648;27;89877;-57
2023/01/21 04:15:28;;;;;;;1.37;1.00;;;20.70;39.40;;;;;;5045237;27;87033;-56
2023/01/21 04:17:56;;;;;;;1.00;0.80;;;20.70;39.40;;;;;;5053076;27;87088;-57
2023/01/21 04:20:24;;;;;;;4.20;1.87;;;20.60;40.10;;;;;;5041628;27;87999;-57
2023/01/21 04:22:52;;;;;;;3.10;1.40;;;20.60;39.40;;;;;;5049678;27;87826;-56
2023/01/21 04:25:20;;;;;;;2.23;1.43;;;20.60;39.40;;;;;;5041814;27;87277;-58
2023/01/21 04:27:49;;;;;;;1.57;1.47;;;20.50;39.40;;;;;;5058054;27;86736;-56
2023/01/21 04:30:17;;;;;;;1.50;1.03;;;20.40;40.00;;;;;;5040772;27;89204;-56
2023/01/21 04:32:46;;;;;;;2.80;1.47;;;20.50;39.40;;;;;;5042077;27;89023;-57
2023/01/21 04:35:14;;;;;;;11.07;1.87;;;20.40;39.40;;;;;;5040042;27;88062;-56
2023/01/21 04:37:42;;;;;;;2.40;1.33;;;20.40;39.40;;;;;;5040333;28;87132;-58
2023/01/21 04:40:11;;;;;;;1.13;1.00;;;20.30;39.30;;;;;;5040917;27;88076;-58
2023/01/21 04:42:41;;;;;;;2.10;1.50;;;20.30;39.30;;;;;;5041297;27;87096;-58
2023/01/21 04:45:11;;;;;;;1.30;1.03;;;20.30;39.30;;;;;;5033304;27;87188;-58
2023/01/21 04:47:41;;;;;;;2.17;1.47;;;20.30;39.30;;;;;;5041968;27;87183;-58
2023/01/21 04:50:10;;;;;;;1.97;1.53;;;20.20;39.30;;;;;;5040604;27;87006;-58
2023/01/21 04:52:38;;;;;;;1.97;1.20;;;20.20;39.30;;;;;;5041896;27;87823;-58
2023/01/21 04:55:07;;;;;;;1.20;1.10;;;20.20;39.30;;;;;;5040597;28;87070;-56
2023/01/21 04:57:35;;;;;;;2.77;1.40;;;20.10;39.20;;;;;;5040567;28;87065;-57
2023/01/21 05:00:05;;;;;;;1.43;1.30;;;20.10;39.20;;;;;;5039281;27;89586;-56
2023/01/21 05:02:34;;;;;;;2.10;1.10;;;20.10;39.30;;;;;;5040744;27;88790;-57
2023/01/21 05:05:02;;;;;;;2.03;1.23;;;20.00;39.20;;;;;;5040649;27;87085;-57
2023/01/21 05:07:30;;;;;;;2.30;1.60;;;20.00;39.20;;;;;;5041330;28;87069;-58
2023/01/21 05:09:58;;;;;;;1.97;1.23;;;20.00;39.30;;;;;;5040573;28;88295;-57
2023/01/21 05:12:26;;;;;;;3.23;1.70;;;20.00;39.20;;;;;;5040125;27;87196;-56
2023/01/21 05:14:56;;;;;;;2.20;1.60;;;20.00;39.30;;;;;;5039200;27;87162;-58
2023/01/21 05:17:24;;;;;;;1.90;1.30;;;19.90;39.20;;;;;;5038734;27;86504;-58
2023/01/21 05:19:53;;;;;;;3.67;1.73;;;19.90;39.10;;;;;;5039712;28;89213;-57
2023/01/21 05:22:21;;;;;;;4.33;2.30;;;19.90;39.20;;;;;;5040146;27;87470;-58
2023/01/21 05:24:49;;;;;;;3.07;2.23;;;19.90;39.20;;;;;;5039387;28;88018;-58
2023/01/21 05:27:18;;;;;;;2.67;1.87;;;19.90;39.20;;;;;;5054924;27;87153;-58
2023/01/21 05:29:46;;;;;;;3.10;1.83;;;19.80;39.10;;;;;;5046309;27;88145;-58
2023/01/21 05:32:14;;;;;;;2.47;1.73;;;19.80;39.20;;;;;;5039112;27;89072;-58
2023/01/21 05:34:42;;;;;;;3.10;1.90;;;19.80;39.20;;;;;;5036163;27;87076;-58
2023/01/21 05:37:12;;;;;;;3.30;1.93;;;19.80;39.20;;;;;;5059689;27;86985;-59
2023/01/21 05:39:40;;;;;;;4.63;2.40;;;19.70;39.10;;;;;;5048724;27;89164;-57
2023/01/21 05:42:08;;;;;;;5.13;2.07;;;19.70;39.10;;;;;;5039388;27;87053;-60
2023/01/21 05:44:36;;;;;;;4.13;2.43;;;19.70;39.10;;;;;;5041207;27;87017;-61
2023/01/21 05:47:04;;;;;;;4.27;2.27;;;19.70;39.20;;;;;;5054451;27;87091;-59
2023/01/21 05:49:32;;;;;;;4.70;2.30;;;19.70;39.20;;;;;;5048455;27;88085;-58
2023/01/21 05:52:00;;;;;;;4.73;2.67;;;19.70;39.20;;;;;;5043062;27;88816;-60
2023/01/21 05:54:29;;;;;;;2.90;2.20;;;19.70;39.40;;;;;;5039680;27;87092;-64
2023/01/21 05:56:57;;;;;;;3.73;1.90;;;19.70;40.00;;;;;;5040325;28;87163;-59
2023/01/21 05:59:25;;;;;;;3.60;2.23;;;19.70;39.40;;;;;;5040551;27;87935;-56
2023/01/21 06:01:53;;;;;;;5.93;2.40;;;19.70;39.40;;;;;;5039609;27;87792;-55
2023/01/21 06:04:27;;;;;;;2.03;1.73;;;19.80;40.20;;;;;;5038379;27;87872;-56
2023/01/21 06:06:55;;;;;;;3.93;1.73;;;19.90;39.60;;;;;;5040044;28;88485;-56
2023/01/21 06:09:23;;;;;;;3.30;1.87;;;20.00;39.60;;;;;;5040314;28;87643;-54
2023/01/21 06:11:52;;;;;;;3.00;1.90;;;20.20;39.60;;;;;;5039454;28;88919;-54
2023/01/21 06:14:20;;;;;;;3.40;1.77;;;20.40;39.70;;;;;;5058118;27;89460;-56
2023/01/21 06:16:48;;;;;;;2.47;1.30;;;20.60;39.70;;;;;;5044858;27;87198;-55
2023/01/21 06:19:16;;;;;;;3.33;1.87;;;20.80;39.60;;;;;;5053909;27;88157;-55
2023/01/21 06:21:44;;;;;;;2.93;2.07;;;21.00;39.60;;;;;;5043389;27;88918;-55
2023/01/21 06:24:12;;;;;;;3.80;2.00;;;21.30;39.60;;;;;;5024144;27;87030;-54
2023/01/21 06:26:40;;;;;;;1.77;1.53;;;21.50;39.60;;;;;;5040820;27;88681;-55
2023/01/21 06:29:09;;;;;;;1.70;1.60;;;21.70;39.50;;;;;;5039818;27;88893;-55
2023/01/21 06:31:38;;;;;;;2.27;1.53;;;21.90;39.40;;;;;;5044074;27;87445;-53
2023/01/21 06:34:06;;;;;;;2.00;1.77;;;22.10;39.40;;;;;;5051146;27;87311;-54
2023/01/21 06:36:35;;;;;;;2.60;1.73;;;22.30;39.40;;;;;;5049223;27;87139;-55
2023/01/21 06:39:03;;;;;;;3.40;1.57;;;22.50;39.30;;;;;;5039809;28;89224;-54
2023/01/21 06:41:31;;;;;;;2.27;1.77;;;22.60;39.30;;;;;;5038843;27;88733;-57
2023/01/21 06:43:59;;;;;;;2.43;1.60;;;22.80;39.30;;;;;;5040197;27;86935;-54
2023/01/21 06:46:28;;;;;;;2.50;1.40;;;22.90;39.20;;;;;;5039537;28;87015;-56
2023/01/21 06:48:56;;;;;;;2.47;2.00;;;23.00;39.20;;;;;;5039691;27;88995;-56
2023/01/21 06:51:24;;;;;;;1.67;1.43;;;23.10;39.10;;;;;;5039387;27;87961;-56
2023/01/21 06:53:52;;;;;;;4.13;1.80;;;23.30;39.10;;;;;;5039580;28;87103;-56
2023/01/21 06:56:20;;;;;;;1.63;1.23;;;23.40;39.10;;;;;;5039528;28;86456;-56
2023/01/21 06:58:48;;;;;;;1.67;1.27;;;23.50;39.10;;;;;;5039565;27;88097;-56
2023/01/21 07:01:16;;;;;;;2.23;1.40;;;23.60;39.10;;;;;;5038744;27;87928;-57
2023/01/21 07:03:46;;;;;;;2.23;1.67;;;23.60;39.00;;;;;;5039011;27;87997;-55
2023/01/21 07:06:14;;;;;;;2.60;1.97;;;23.60;38.90;;;;;;5039594;27;86899;-55
2023/01/21 07:08:42;;;;;;;1.60;1.30;;;23.60;39.00;;;;;;5042574;28;88215;-55
2023/01/21 07:11:10;;;;;;;1.90;1.37;;;23.60;39.00;;;;;;5042902;27;87784;-55
2023/01/21 07:13:38;;;;;;;1.57;1.43;;;23.60;39.10;;;;;;5044252;27;87091;-55
2023/01/21 07:16:07;;;;;;;2.07;1.63;;;23.60;39.10;;;;;;5057652;27;86919;-62
2023/01/21 07:18:35;;;;;;;3.53;1.47;;;23.60;39.10;;;;;;5042894;27;88061;-61
2023/01/21 07:21:05;;;;;;;2.53;1.47;;;23.60;39.10;;;;;;5053403;27;87915;-60
2023/01/21 07:23:33;;;;;;;1.73;1.23;;;23.70;39.00;;;;;;5042395;28;87101;-59
2023/01/21 07:26:01;;;;;;;2.07;1.43;;;23.70;38.90;;;;;;5042447;28;87158;-57
2023/01/21 07:28:29;;;;;;;1.23;1.10;;;23.70;38.90;;;;;;5041432;28;89987;-58
2023/01/21 07:30:58;;;;;;;1.90;1.13;;;23.80;38.80;;;;;;5042022;27;88725;-58
2023/01/21 07:33:27;;;;;;;1.53;1.20;;;23.80;38.70;;;;;;5042576;27;86985;-59
2023/01/21 07:35:55;;;;;;;1.13;0.90;;;23.90;38.70;;;;;;5042379;28;87264;-58
2023/01/21 07:38:24;;;;;;;1.90;1.27;;;23.90;38.50;;;;;;5042405;28;88026;-58
2023/01/21 07:40:52;;;;;;;1.57;0.90;;;24.00;38.50;;;;;;5042399;27;88953;-58
2023/01/21 07:43:20;;;;;;;1.53;1.23;;;24.00;38.40;;;;;;5039589;28;87132;-59
2023/01/21 07:45:48;;;;;;;2.07;0.97;;;24.10;38.30;;;;;;5042844;28;86344;-57
2023/01/21 07:48:16;;;;;;;3.13;1.20;;;24.10;38.90;;;;;;5041710;28;87916;-59
2023/01/21 07:50:44;;;;;;;1.77;1.23;;;24.20;38.20;;;;;;5042732;28;88860;-58
2023/01/21 07:53:12;;;;;;;5.87;1.50;;;24.20;38.20;;;;;;5042447;27;88076;-55
2023/01/21 07:55:42;;;;;;;2.20;1.37;;;24.30;38.10;;;;;;5030952;27;87026;-55
2023/01/21 07:58:10;;;;;;;2.60;1.00;;;24.40;38.20;;;;;;5048172;27;89240;-56
2023/01/21 08:00:38;;;;;;;1.03;0.90;;;24.50;38.10;;;;;;5042367;27;87733;-56
2023/01/21 08:03:06;;;;;;;0.90;0.87;;;24.60;38.10;;;;;;5043211;27;87037;-57
2023/01/21 08:05:34;;;;;;;1.53;1.03;;;24.60;38.00;;;;;;5044214;27;87423;-55
2023/01/21 08:08:02;;;;;;;1.70;1.10;;;24.70;38.10;;;;;;5047912;27;88060;-56
2023/01/21 08:10:30;;;;;;;0.87;0.80;;;24.70;38.10;;;;;;5059641;27;87881;-56
2023/01/21 08:13:00;;;;;;;1.57;0.90;;;24.70;38.20;;;;;;5051126;27;87276;-56
2023/01/21 08:15:28;;;;;;;0.73;0.70;;;24.60;38.30;;;;;;5041099;27;88597;-56
2023/01/21 08:17:56;;;;;;;1.37;0.90;;;24.60;38.40;;;;;;5048457;27;89069;-56
2023/01/21 08:20:24;;;;;;;1.00;0.90;;;24.50;38.40;;;;;;5052648;27;90031;-55
2023/01/21 08:22:52;;;;;;;0.87;0.80;;;24.40;38.40;;;;;;5042746;27;87215;-58
2023/01/21 08:25:20;;;;;;;1.27;1.00;;;24.20;38.40;;;;;;5041139;27;87005;-57
2023/01/21 08:27:48;;;;;;;2.00;1.17;;;24.10;38.40;;;;;;5041698;28;88094;-58
2023/01/21 08:30:18;;;;;;;2.10;1.53;;;24.00;38.80;;;;;;5042050;27;88825;-58
2023/01/21 08:32:46;;;;;;;1.43;1.33;;;23.90;38.50;;;;;;5042410;27;87058;-56
2023/01/21 08:35:14;;;;;;;1.53;1.07;;;23.80;38.40;;;;;;5043903;27;86327;-56
2023/01/21 08:37:43;;;;;;;2.20;1.20;;;23.70;38.40;;;;;;5046859;27;88090;-56
2023/01/21 08:40:12;;;;;;;2.67;1.00;;;23.70;38.50;;;;;;5021560;28;88973;-56
2023/01/21 08:42:40;;;;;;;1.80;1.03;;;23.60;38.40;;;;;;5034822;27;89582;-57
2023/01/21 08:45:09;;;;;;;2.13;1.20;;;23.60;38.40;;;;;;5041715;27;87133;-57
2023/01/21 08:47:38;;;;;;;0.83;0.77;;;23.60;38.40;;;;;;5040873;27;88267;-56
2023/01/21 08:50:08;;;;;;;1.77;1.10;;;23.70;38.30;;;;;;5042081;27;87836;-59
2023/01/21 08:52:36;;;;;;;2.90;1.27;;;23.70;38.30;;;;;;5048600;27;87226;-56
2023/01/21 08:55:04;;;;;;;1.20;1.10;;;23.90;38.30;;;;;;5040741;28;87086;-56
2023/01/21 08:57:32;;;;;;;0.90;0.80;;;24.00;38.20;;;;;;5040878;27;88009;-57
2023/01/21 09:00:00;;;;;;;2.63;1.60;;;24.10;38.10;;;;;;5042308;27;87980;-57
2023/01/21 09:02:28;;;;;;;1.40;0.87;;;24.20;37.90;;;;;;5041170;28;87032;-57
2023/01/21 09:04:58;;;;;;;1.10;1.00;;;24.30;37.80;;;;;;5041656;28;87159;-57
2023/01/21 09:07:26;;;;;;;1.13;1.03;;;24.40;37.70;;;;;;5040270;27;89203;-58
2023/01/21 09:09:54;;;;;;;1.50;1.03;;;24.40;37.70;;;;;;5040995;27;87850;-57
2023/01/21 09:12:22;;;;;;;1.10;0.97;;;24.40;37.60;;;;;;5041721;28;86942;-57
2023/01/21 09:14:50;;;;;;;0.77;0.77;;;24.40;37.60;;;;;;5040992;28;87008;-57
2023/01/21 09:17:17;;;;;;;1.40;0.83;;;24.40;37.60;;;;;;5042472;27;88098;-58
2023/01/21 09:19:46;;;;;;;1.73;1.00;;;24.30;37.50;;;;;;5040501;27;87721;-58
2023/01/21 09:22:15;;;;;;;1.37;0.97;;;24.20;37.40;;;;;;5042677;27;87031;-58
2023/01/21 09:24:43;;;;;;;0.97;0.80;;;24.20;37.50;;;;;;5045702;27;86416;-59
2023/01/21 09:27:11;;;;;;;2.17;1.30;;;24.10;37.40;;;;;;5051495;27;88149;-58
2023/01/21 09:29:40;;;;;;;1.80;1.10;;;24.00;37.40;;;;;;5044943;27;89083;-58
2023/01/21 09:32:08;;;;;;;1.03;0.90;;;24.00;37.50;;;;;;5052137;27;87989;-57
2023/01/21 09:34:36;;;;;;;1.30;0.93;;;23.90;37.40;;;;;;5036733;27;87376;-58
2023/01/21 09:37:04;;;;;;;2.07;1.00;;;23.80;37.40;;;;;;5040550;28;89215;-59
2023/01/21 09:39:34;;;;;;;1.47;1.10;;;23.80;37.50;;;;;;5040723;27;87866;-57
2023/01/21 09:42:02;;;;;;;1.63;1.00;;;23.70;37.40;;;;;;5048827;27;87176;-59
2023/01/21 09:44:31;;;;;;;0.87;0.73;;;23.70;37.40;;;;;;5049856;27;87115;-58
2023/01/21 09:47:02;;;;;;;2.50;1.13;;;23.70;37.40;;;;;;5042784;27;88158;-56
2023/01/21 09:49:32;;;;;;;1.77;1.57;;;23.70;37.40;;;;;;5040992;28;88843;-59
2023/01/21 09:52:08;;;;;;;2.90;1.40;;;23.80;37.40;;;;;;5040807;27;87068;-60
2023/01/21 09:54:38;;;;;;;1.93;1.50;;;23.80;37.20;;;;;;5036769;28;86995;-61
2023/01/21 09:57:17;;;;;;;3.27;2.13;;;23.80;37.00;;;;;;5038880;28;89210;-59
2023/01/21 09:59:51;;;;;;;3.20;2.33;;;23.90;37.00;;;;;;5039686;28;88638;-58
2023/01/21 10:02:24;;;;;;;3.13;1.87;;;23.90;36.70;;;;;;5034885;27;87138;-59
2023/01/21 10:04:58;;;;;;;5.47;2.70;;;23.90;36.40;;;;;;5054682;27;87059;-58
2023/01/21 10:07:26;;;;;;;4.03;2.10;;;24.00;36.40;;;;;;5060960;27;88882;-59
2023/01/21 10:10:00;;;;;;;6.70;2.70;;;23.90;36.20;;;;;;5058989;27;88837;-60
2023/01/21 10:12:43;;;;;;;4.83;2.67;;;23.90;36.00;;;;;;5041066;27;87076;-59
2023/01/21 10:15:36;;;;;;;4.30;2.60;;;23.90;36.00;;;;;;5048688;27;86291;-59
2023/01/21 10:18:06;;;;;;;3.73;2.27;;;23.80;35.80;;;;;;5039362;27;89361;-61
2023/01/21 10:20:37;;;;;;;3.60;2.87;;;23.70;35.70;;;;;;5041599;27;87095;-59
2023/01/21 10:23:10;;;;;;;4.50;2.23;;;23.70;35.70;;;;;;5041261;27;88131;-60
2023/01/21 10:25:40;;;;;;;3.83;1.60;;;23.60;35.70;;;;;;5040890;27;88392;-60
2023/01/21 10:28:11;;;;;;;3.73;2.13;;;23.50;35.70;;;;;;5033064;28;89256;-60
2023/01/21 10:30:40;;;;;;;4.93;2.37;;;23.40;35.60;;;;;;5020143;28;87665;-60
2023/01/21 10:33:15;;;;;;;3.63;2.13;;;23.30;35.50;;;;;;5048492;27;87046;-60
2023/01/21 10:36:02;;;;;;;4.27;2.83;;;23.20;35.50;;;;;;5025744;28;87178;-59
2023/01/21 10:38:32;;;;;;;4.67;3.10;;;23.10;35.50;;;;;;5053646;27;88105;-59
2023/01/21 10:41:04;;;;;;;3.50;2.60;;;23.10;35.40;;;;;;5050826;27;88798;-60
2023/01/21 10:43:35;;;;;;;4.30;2.40;;;23.00;36.00;;;;;;5048717;27;87000;-60
2023/01/21 10:46:08;;;;;;;6.07;2.67;;;22.90;35.30;;;;;;5041449;27;87276;-60
2023/01/21 10:48:38;;;;;;;2.70;1.77;;;22.80;35.20;;;;;;5037816;28;88047;-60
2023/01/21 10:51:10;;;;;;;2.77;1.70;;;22.70;35.20;;;;;;5043879;27;88690;-59
2023/01/21 10:53:39;;;;;;;6.00;2.30;;;22.70;35.30;;;;;;5043610;28;87782;-60
2023/01/21 10:56:14;;;;;;;2.50;2.10;;;22.70;35.30;;;;;;5043589;27;87128;-59
2023/01/21 10:58:44;;;;;;;2.03;1.73;;;22.60;35.30;;;;;;5043470;28;89201;-60
2023/01/21 11:01:16;;;;;;;4.63;2.27;;;22.60;35.30;;;;;;5043351;27;87823;-61
2023/01/21 11:03:45;;;;;;;3.13;2.50;;;22.60;35.30;;;;;;5023789;28;87044;-60
2023/01/21 11:06:14;;;;;;;4.10;1.80;;;22.60;35.50;;;;;;5023409;28;86449;-60
2023/01/21 11:08:44;;;;;;;4.13;2.13;;;22.50;36.10;;;;;;5023033;28;89308;-60
2023/01/21 11:11:13;;;;;;;3.00;1.70;;;22.50;35.50;;;;;;5023115;28;88007;-59
2023/01/21 11:13:41;;;;;;;2.50;1.90;;;22.50;35.50;;;;;;5022970;28;88004;-59
2023/01/21 11:16:09;;;;;;;2.20;1.13;;;22.50;35.60;;;;;;5023648;28;87092;-61
2023/01/21 11:18:39;;;;;;;2.00;1.60;;;22.40;35.60;;;;;;5022625;28;89158;-61
2023/01/21 11:21:14;;;;;;;3.30;1.90;;;22.40;35.80;;;;;;5029797;28;87195;-61
2023/01/21 11:23:42;;;;;;;2.23;1.50;;;22.40;35.80;;;;;;5043333;28;87093;-60
2023/01/21 11:26:18;;;;;;;3.03;1.27;;;22.40;35.80;;;;;;5042994;27;86913;-61
2023/01/21 11:28:46;;;;;;;3.03;1.63;;;22.30;35.80;;;;;;5043027;28;89439;-60
2023/01/21 11:31:15;;;;;;;1.77;1.40;;;22.30;35.90;;;;;;5042694;28;88741;-60
2023/01/21 11:33:43;;;;;;;1.53;1.30;;;22.30;36.00;;;;;;5043046;28;87055;-61
2023/01/21 11:36:15;;;;;;;1.30;1.20;;;22.20;36.00;;;;;;5042636;28;87760;-59
2023/01/21 11:38:43;;;;;;;2.83;1.57;;;22.20;36.10;;;;;;5041130;28;89220;-60
2023/01/21 11:41:21;;;;;;;2.93;1.67;;;22.20;36.10;;;;;;5042641;27;88984;-60
2023/01/21 11:43:50;;;;;;;1.73;1.40;;;22.20;36.20;;;;;;5043282;27;87064;-61
2023/01/21 11:46:30;;;;;;;1.20;1.10;;;22.20;36.20;;;;;;5042833;28;87087;-61
2023/01/21 11:49:16;;;;;;;1.67;1.30;;;22.10;36.30;;;;;;5042417;28;88048;-61
2023/01/21 11:51:45;;;;;;;2.30;1.37;;;22.10;36.40;;;;;;5042079;28;88749;-62
2023/01/21 11:54:14;;;;;;;1.73;0.97;;;22.10;36.40;;;;;;5041112;27;87035;-62
2023/01/21 11:56:53;;;;;;;1.80;1.53;;;22.10;36.50;;;;;;5043052;28;86360;-61
2023/01/21 11:59:23;;;;;;;2.50;1.40;;;22.10;36.60;;;;;;5041828;28;88093;-62
2023/01/21 12:01:52;;;;;;;2.40;1.47;;;22.00;36.60;;;;;;5041939;27;87681;-62
2023/01/21 12:04:20;;;;;;;1.17;1.07;;;22.00;36.70;;;;;;5041649;27;88087;-61
2023/01/21 12:06:50;;;;;;;2.67;1.30;;;22.00;36.70;;;;;;5041678;28;87118;-61
2023/01/21 12:09:19;;;;;;;2.00;1.00;;;22.00;36.80;;;;;;5042224;28;88195;-61
2023/01/21 12:12:01;;;;;;;2.30;1.30;;;22.00;36.80;;;;;;5041962;27;88050;-62
2023/01/21 12:14:33;;;;;;;2.07;1.23;;;21.90;36.70;;;;;;5042276;27;87128;-61
2023/01/21 12:17:04;;;;;;;2.97;1.50;;;21.90;36.70;;;;;;5042438;28;87270;-59
2023/01/21 12:19:42;;;;;;;2.03;1.53;;;21.90;36.80;;;;;;5042454;28;88203;-61
2023/01/21 12:22:20;;;;;;;3.80;1.10;;;21.80;36.80;;;;;;5042407;28;87842;-62
2023/01/21 12:24:56;;;;;;;1.57;1.13;;;21.80;36.80;;;;;;5041980;28;87172;-61
2023/01/21 12:27:29;;;;;;;1.53;1.03;;;21.80;36.80;;;;;;5042461;28;87134;-61
2023/01/21 12:30:02;;;;;;;2.03;1.33;;;21.80;36.80;;;;;;5041846;27;89018;-61
2023/01/21 12:32:31;;;;;;;3.93;1.53;;;21.70;36.80;;;;;;5042034;28;89949;-62
2023/01/21 12:35:01;;;;;;;1.83;1.20;;;21.70;36.80;;;;;;5042237;28;87082;-62
2023/01/21 12:37:31;;;;;;;1.20;1.10;;;21.70;36.90;;;;;;5042068;28;87118;-61
2023/01/21 12:40:01;;;;;;;2.37;1.67;;;21.70;36.90;;;;;;5042317;28;89316;-61
2023/01/21 12:42:33;;;;;;;3.70;1.43;;;21.70;36.90;;;;;;5042051;27;87870;-62
2023/01/21 12:45:03;;;;;;;1.73;1.27;;;21.60;36.80;;;;;;5042202;27;87041;-61
2023/01/21 12:47:35;;;;;;;1.87;1.10;;;21.60;36.80;;;;;;5042027;27;86312;-62
2023/01/21 12:50:22;;;;;;;3.83;1.57;;;21.60;36.90;;;;;;5041751;28;89390;-61
2023/01/21 12:52:57;;;;;;;1.50;1.03;;;21.60;36.90;;;;;;5041750;27;87913;-61
2023/01/21 12:55:28;;;;;;;1.70;1.10;;;21.60;36.90;;;;;;5041006;28;88035;-61
2023/01/21 12:57:59;;;;;;;2.93;1.80;;;21.50;36.90;;;;;;5042189;27;87015;-61
2023/01/21 13:00:29;;;;;;;1.37;1.20;;;21.50;36.90;;;;;;5041104;28;89311;-61
2023/01/21 13:03:02;;;;;;;1.93;1.37;;;21.50;36.90;;;;;;5041449;28;87769;-62
2023/01/21 13:05:34;;;;;;;1.40;1.10;;;21.50;37.60;;;;;;5041146;27;87010;-61